createdAt,value
2022-11-23T00:01:35.992Z,83.00
2022-11-23T00:04:12.881Z,78.80
2022-11-23T00:06:41.221Z,81.60
2022-11-23T00:09:10.593Z,78.10
2022-11-23T00:11:38.510Z,84.50
2022-11-23T00:14:06.344Z,89.50
2022-11-23T00:16:34.487Z,83.00
2022-11-23T00:19:03.013Z,85.10
2022-11-23T00:21:32.654Z,74.60
2022-11-23T00:24:00.791Z,75.40
2022-11-23T00:26:28.819Z,77.90
2022-11-23T00:28:56.968Z,79.20
2022-11-23T00:31:28.841Z,78.20
2022-11-23T00:33:57.876Z,79.10
2022-11-23T00:36:27.327Z,83.50
2022-11-23T00:38:55.793Z,74.90
2022-11-23T00:41:27.034Z,80.90
2022-11-23T00:43:55.223Z,83.60
2022-11-23T00:46:27.852Z,80.80
2022-11-23T00:48:58.078Z,85.90
2022-11-23T00:51:32.559Z,83.00
2022-11-23T00:54:01.959Z,79.20
2022-11-23T00:56:30.147Z,81.30
2022-11-23T00:58:59.515Z,77.90
2022-11-23T01:01:30.896Z,79.70
2022-11-23T01:03:59.391Z,79.30
2022-11-23T01:06:33.020Z,77.70
2022-11-23T01:09:04.623Z,78.90
2022-11-23T01:11:33.029Z,80.70
2022-11-23T01:14:01.667Z,84.50
2022-11-23T01:16:32.540Z,85.50
2022-11-23T01:19:07.189Z,85.10
2022-11-23T01:21:36.883Z,89.50
2022-11-23T01:24:09.024Z,83.90
2022-11-23T01:26:40.761Z,84.60
2022-11-23T01:29:12.030Z,80.60
2022-11-23T01:31:46.120Z,81.70
2022-11-23T01:34:16.191Z,85.20
2022-11-23T01:36:44.694Z,81.50
2022-11-23T01:39:14.499Z,81.70
2022-11-23T01:41:44.525Z,86.00
2022-11-23T01:44:32.383Z,83.20
2022-11-23T01:47:03.751Z,80.10
2022-11-23T01:49:50.026Z,83.90
2022-11-23T01:52:24.787Z,84.20
2022-11-23T01:54:59.183Z,87.70
2022-11-23T01:57:34.869Z,84.20
2022-11-23T02:00:02.893Z,74.10
2022-11-23T02:02:45.832Z,84.10
2022-11-23T02:05:17.168Z,86.70
2022-11-23T02:07:50.064Z,90.40
2022-11-23T02:10:18.525Z,81.40
2022-11-23T02:12:46.760Z,83.20
2022-11-23T02:15:14.775Z,88.20
2022-11-23T02:17:44.095Z,89.20
2022-11-23T02:20:15.958Z,81.20
2022-11-23T02:23:07.099Z,84.00
2022-11-23T02:25:47.001Z,83.70
2022-11-23T02:28:22.362Z,82.10
2022-11-23T02:30:53.183Z,92.20
2022-11-23T02:33:23.332Z,90.60
2022-11-23T02:35:56.110Z,91.90
2022-11-23T02:38:28.261Z,87.90
2022-11-23T02:40:58.213Z,89.50
2022-11-23T02:43:26.163Z,87.10
2022-11-23T02:46:04.146Z,86.00
2022-11-23T02:48:32.687Z,85.40
2022-11-23T02:51:03.346Z,84.60
2022-11-23T02:53:31.953Z,89.90
2022-11-23T02:55:59.766Z,84.00
2022-11-23T02:58:27.672Z,86.60
2022-11-23T03:00:55.577Z,85.80
2022-11-23T03:03:23.996Z,93.20
2022-11-23T03:05:51.905Z,92.30
2022-11-23T03:08:20.124Z,92.20
2022-11-23T03:10:48.152Z,84.00
2022-11-23T03:13:16.047Z,83.90
2022-11-23T03:15:44.207Z,87.40
2022-11-23T03:18:12.007Z,87.80
2022-11-23T03:20:39.983Z,91.70
2022-11-23T03:23:07.808Z,85.90
2022-11-23T03:25:35.761Z,89.60
2022-11-23T03:28:04.863Z,89.00
2022-11-23T03:30:33.758Z,90.80
2022-11-23T03:33:02.317Z,86.90
2022-11-23T03:35:30.065Z,84.60
2022-11-23T03:38:16.684Z,83.90
2022-11-23T03:40:47.620Z,85.10
2022-11-23T03:43:24.563Z,90.10
2022-11-23T03:45:52.606Z,87.00
2022-11-23T03:48:20.438Z,80.60
2022-11-23T03:50:49.082Z,89.30
2022-11-23T03:53:16.844Z,83.40
2022-11-23T03:55:47.109Z,87.10
2022-11-23T03:58:16.020Z,85.60
2022-11-23T04:00:44.319Z,79.70
2022-11-23T04:03:13.907Z,81.60
2022-11-23T04:06:00.483Z,78.80
2022-11-23T04:08:34.220Z,86.70
2022-11-23T04:11:07.113Z,81.50
2022-11-23T04:13:39.598Z,89.50
2022-11-23T04:16:07.960Z,91.40
2022-11-23T04:18:35.734Z,91.80
2022-11-23T04:21:06.522Z,94.20
2022-11-23T04:23:34.765Z,94.90
2022-11-23T04:26:04.014Z,96.50
2022-11-23T04:28:31.867Z,96.20
2022-11-23T04:30:59.562Z,95.00
2022-11-23T04:33:31.657Z,97.40
2022-11-23T04:35:59.878Z,96.50
2022-11-23T04:38:27.722Z,88.90
2022-11-23T04:40:55.566Z,88.40
2022-11-23T04:43:23.475Z,91.70
2022-11-23T04:45:51.609Z,95.90
2022-11-23T04:48:24.686Z,93.00
2022-11-23T04:50:55.836Z,90.70
2022-11-23T04:53:29.225Z,84.10
2022-11-23T04:55:57.411Z,89.50
2022-11-23T04:58:26.931Z,85.00
2022-11-23T05:00:59.077Z,92.50
2022-11-23T05:03:27.292Z,89.70
2022-11-23T05:05:58.658Z,91.80
2022-11-23T05:08:27.131Z,90.40
2022-11-23T05:11:01.811Z,94.90
2022-11-23T05:13:30.361Z,97.40
2022-11-23T05:16:01.407Z,102.20
2022-11-23T05:18:29.901Z,108.60
2022-11-23T05:20:57.746Z,110.90
2022-11-23T05:23:25.624Z,97.20
2022-11-23T05:25:54.260Z,92.50
2022-11-23T05:28:39.490Z,96.30
2022-11-23T05:31:08.980Z,101.10
2022-11-23T05:33:38.783Z,95.10
2022-11-23T05:36:08.601Z,107.30
2022-11-23T05:38:39.277Z,110.10
2022-11-23T05:41:12.491Z,110.40
2022-11-23T05:43:42.232Z,111.70
2022-11-23T05:46:12.098Z,114.50
2022-11-23T05:48:40.438Z,116.80
2022-11-23T05:51:12.507Z,123.30
2022-11-23T05:53:46.684Z,103.70
2022-11-23T05:56:20.568Z,105.10
2022-11-23T05:59:12.504Z,102.90
2022-11-23T06:01:41.731Z,99.40
2022-11-23T06:04:10.660Z,87.70
2022-11-23T06:06:43.244Z,96.50
2022-11-23T06:09:11.347Z,115.90
2022-11-23T06:11:40.875Z,103.90
2022-11-23T06:14:14.375Z,104.40
2022-11-23T06:16:42.998Z,112.30
2022-11-23T06:19:18.869Z,119.40
2022-11-23T06:21:50.399Z,97.00
2022-11-23T06:24:19.586Z,93.40
2022-11-23T06:26:52.607Z,87.00
2022-11-23T06:29:20.886Z,100.50
2022-11-23T06:31:49.284Z,99.20
2022-11-23T06:34:17.275Z,105.30
2022-11-23T06:36:45.108Z,82.50
2022-11-23T06:39:13.553Z,83.80
2022-11-23T06:41:41.587Z,93.40
2022-11-23T06:44:09.600Z,91.20
2022-11-23T06:46:40.861Z,113.30
2022-11-23T06:49:09.097Z,91.10
2022-11-23T06:51:38.189Z,101.00
2022-11-23T06:54:06.207Z,91.80
2022-11-23T06:56:35.126Z,98.20
2022-11-23T06:59:04.008Z,115.00
2022-11-23T07:01:32.872Z,100.30
2022-11-23T07:04:04.372Z,110.80
2022-11-23T07:06:38.934Z,100.90
2022-11-23T07:09:09.450Z,108.40
2022-11-23T07:11:47.620Z,104.20
2022-11-23T07:14:16.780Z,107.30
2022-11-23T07:16:47.284Z,113.10
2022-11-23T07:19:15.783Z,115.50
2022-11-23T07:21:45.146Z,107.60
2022-11-23T07:24:13.075Z,103.90
2022-11-23T07:26:42.200Z,116.80
2022-11-23T07:29:10.577Z,114.10
2022-11-23T07:31:38.925Z,117.70
2022-11-23T07:34:09.299Z,115.70
2022-11-23T07:36:37.742Z,107.70
2022-11-23T07:39:07.513Z,111.20
2022-11-23T07:41:35.924Z,115.90
2022-11-23T07:44:09.920Z,112.70
2022-11-23T07:46:37.804Z,106.70
2022-11-23T07:49:06.113Z,116.80
2022-11-23T07:51:34.496Z,121.70
2022-11-23T07:54:02.637Z,121.30
2022-11-23T07:56:30.668Z,125.80
2022-11-23T07:58:58.842Z,119.50
2022-11-23T08:01:26.757Z,123.00
2022-11-23T08:03:54.636Z,130.00
2022-11-23T08:06:22.624Z,136.00
2022-11-23T08:08:50.500Z,122.60
2022-11-23T08:11:20.655Z,122.90
2022-11-23T08:13:48.773Z,117.90
2022-11-23T08:16:16.730Z,131.30
2022-11-23T08:18:44.727Z,120.40
2022-11-23T08:21:12.531Z,126.70
2022-11-23T08:23:40.652Z,117.70
2022-11-23T08:26:13.357Z,123.70
2022-11-23T08:28:41.938Z,116.60
2022-11-23T08:31:14.615Z,112.10
2022-11-23T08:33:43.280Z,104.80
2022-11-23T08:36:11.246Z,111.90
2022-11-23T08:38:39.138Z,117.50
2022-11-23T08:41:07.135Z,110.50
2022-11-23T08:43:36.140Z,114.70
2022-11-23T08:46:10.766Z,121.10
2022-11-23T08:48:39.326Z,115.80
2022-11-23T08:51:08.030Z,111.30
2022-11-23T08:53:37.039Z,111.20
2022-11-23T08:56:07.011Z,119.00
2022-11-23T08:58:35.207Z,108.30
2022-11-23T09:01:08.453Z,108.90
2022-11-23T09:03:36.694Z,114.10
2022-11-23T09:06:05.782Z,112.80
2022-11-23T09:08:34.400Z,111.30
2022-11-23T09:11:05.665Z,120.60
2022-11-23T09:13:39.155Z,112.80
2022-11-23T09:16:08.626Z,113.60
2022-11-23T09:18:37.327Z,115.20
2022-11-23T09:21:06.712Z,112.90
2022-11-23T09:23:34.687Z,111.40
2022-11-23T09:26:04.679Z,113.30
2022-11-23T09:28:33.854Z,98.50
2022-11-23T09:31:04.499Z,103.00
2022-11-23T09:33:33.197Z,101.10
2022-11-23T09:36:03.598Z,104.90
2022-11-23T09:38:55.088Z,107.80
2022-11-23T09:41:50.093Z,112.90
2022-11-23T09:44:34.575Z,102.40
2022-11-23T09:47:20.722Z,105.40
2022-11-23T09:50:11.862Z,111.10
2022-11-23T09:52:44.683Z,104.30
2022-11-23T09:55:21.759Z,99.70
2022-11-23T09:57:53.366Z,101.20
2022-11-23T10:00:23.290Z,106.80
2022-11-23T10:02:51.353Z,110.20
2022-11-23T10:05:26.226Z,109.40
2022-11-23T10:08:16.802Z,109.60
2022-11-23T10:10:58.110Z,114.30
2022-11-23T10:13:45.091Z,111.50
2022-11-23T10:16:52.892Z,105.10
2022-11-23T10:19:55.013Z,112.70
2022-11-23T10:22:29.013Z,113.80
2022-11-23T10:24:57.310Z,110.40
2022-11-23T10:27:25.746Z,114.00
2022-11-23T10:29:56.619Z,105.80
2022-11-23T10:32:37.855Z,97.10
2022-11-23T10:35:12.532Z,95.60
2022-11-23T10:37:41.493Z,101.90
2022-11-23T10:40:21.484Z,115.40
2022-11-23T10:42:58.245Z,117.00
2022-11-23T10:45:28.021Z,123.30
2022-11-23T10:48:01.654Z,113.60
2022-11-23T10:50:40.809Z,119.60
2022-11-23T10:53:08.936Z,111.80
2022-11-23T10:55:49.829Z,113.40
2022-11-23T10:58:31.327Z,110.20
2022-11-23T11:01:06.362Z,107.00
2022-11-23T11:03:35.407Z,114.00
2022-11-23T11:06:09.910Z,117.50
2022-11-23T11:09:03.957Z,115.30
2022-11-23T11:11:38.887Z,119.30
2022-11-23T11:14:15.961Z,125.40
2022-11-23T11:16:55.827Z,124.70
2022-11-23T11:19:35.062Z,108.20
2022-11-23T11:22:25.324Z,119.00
2022-11-23T11:24:54.864Z,115.30
2022-11-23T11:27:25.166Z,112.80
2022-11-23T11:30:01.728Z,109.40
2022-11-23T11:32:39.148Z,110.20
2022-11-23T11:35:20.770Z,110.20
2022-11-23T11:37:51.847Z,119.80
2022-11-23T11:40:22.590Z,120.10
2022-11-23T11:42:59.870Z,110.50
2022-11-23T11:46:21.379Z,104.40
2022-11-23T11:48:45.086Z,112.20
2022-11-23T11:51:33.465Z,110.80
2022-11-23T11:54:31.917Z,108.20
2022-11-23T11:57:10.485Z,110.30
2022-11-23T11:59:45.248Z,79.50
2022-11-23T12:02:21.992Z,97.10
2022-11-23T12:05:03.614Z,92.10
2022-11-23T12:08:09.293Z,110.90
2022-11-23T12:10:59.282Z,107.70
2022-11-23T12:13:39.029Z,115.50
2022-11-23T12:16:33.928Z,114.40
2022-11-23T12:19:23.908Z,111.50
2022-11-23T12:22:16.641Z,104.70
2022-11-23T12:25:14.495Z,110.30
2022-11-23T12:28:00.976Z,113.90
2022-11-23T12:30:47.716Z,111.80
2022-11-23T12:33:48.052Z,104.80
2022-11-23T12:36:34.635Z,115.50
2022-11-23T12:39:40.782Z,122.60
2022-11-23T12:42:15.343Z,136.40
2022-11-23T12:45:20.392Z,123.60
2022-11-23T12:48:16.402Z,121.10
2022-11-23T12:51:02.681Z,123.50
2022-11-23T12:54:00.513Z,121.50
2022-11-23T12:57:08.404Z,127.20
2022-11-23T12:59:43.994Z,127.70
2022-11-23T13:02:39.472Z,121.50
2022-11-23T13:05:31.642Z,122.90
2022-11-23T13:08:04.151Z,120.70
2022-11-23T13:11:04.349Z,121.30
2022-11-23T13:13:59.668Z,127.50
2022-11-23T13:16:42.065Z,141.60
2022-11-23T13:19:25.133Z,137.70
2022-11-23T13:22:05.348Z,139.00
2022-11-23T13:24:38.403Z,149.00
2022-11-23T13:27:16.256Z,145.30
2022-11-23T13:29:49.030Z,153.70
2022-11-23T13:32:39.461Z,145.90
2022-11-23T13:35:16.616Z,132.80
2022-11-23T13:38:14.355Z,115.80
2022-11-23T13:40:44.973Z,134.70
2022-11-23T13:43:21.682Z,123.00
2022-11-23T13:46:34.769Z,137.50
2022-11-23T13:49:03.758Z,154.50
2022-11-23T13:51:34.789Z,143.80
2022-11-23T13:54:20.721Z,141.20
2022-11-23T13:56:59.190Z,144.10
2022-11-23T13:59:31.301Z,142.90
2022-11-23T14:01:59.826Z,138.20
2022-11-23T14:04:34.152Z,130.30
2022-11-23T14:07:07.146Z,143.50
2022-11-23T14:09:43.861Z,142.10
2022-11-23T14:12:11.810Z,148.90
2022-11-23T14:14:43.756Z,139.30
2022-11-23T14:17:36.482Z,134.10
2022-11-23T14:20:07.450Z,142.70
2022-11-23T14:22:44.673Z,129.60
2022-11-23T14:25:31.200Z,132.60
2022-11-23T14:28:24.150Z,139.20
2022-11-23T14:31:12.348Z,148.80
2022-11-23T14:33:52.281Z,148.00
2022-11-23T14:36:31.177Z,128.50
2022-11-23T14:39:36.731Z,125.20
2022-11-23T14:42:13.048Z,125.60
2022-11-23T14:44:42.760Z,116.80
2022-11-23T14:47:12.163Z,106.50
2022-11-23T14:49:53.334Z,105.30
2022-11-23T14:52:24.908Z,102.00
2022-11-23T14:54:58.704Z,108.20
2022-11-23T14:57:35.064Z,105.30
2022-11-23T15:00:10.150Z,102.70
2022-11-23T15:02:41.280Z,106.90
2022-11-23T15:05:21.081Z,108.20
2022-11-23T15:07:56.110Z,102.70
2022-11-23T15:10:27.896Z,106.00
2022-11-23T15:12:57.714Z,101.90
2022-11-23T15:15:31.286Z,104.10
2022-11-23T15:18:02.375Z,100.70
2022-11-23T15:20:41.447Z,102.90
2022-11-23T15:23:24.020Z,98.70
2022-11-23T15:25:57.583Z,95.50
2022-11-23T15:28:31.354Z,99.80
2022-11-23T15:30:59.543Z,94.40
2022-11-23T15:33:28.594Z,97.70
2022-11-23T15:35:57.890Z,98.30
2022-11-23T15:38:28.494Z,101.90
2022-11-23T15:41:05.710Z,104.60
2022-11-23T15:43:35.199Z,89.90
2022-11-23T15:46:13.285Z,91.20
2022-11-23T15:48:43.430Z,99.00
2022-11-23T15:51:35.037Z,95.10
2022-11-23T15:54:03.755Z,97.10
2022-11-23T15:56:35.125Z,96.20
2022-11-23T15:59:33.791Z,105.30
2022-11-23T16:02:07.369Z,117.60
2022-11-23T16:04:41.061Z,106.50
2022-11-23T16:07:21.063Z,102.60
2022-11-23T16:10:11.696Z,107.90
2022-11-23T16:12:51.223Z,109.60
2022-11-23T16:15:38.018Z,101.20
2022-11-23T16:18:18.827Z,100.90
2022-11-23T16:20:51.033Z,104.20
2022-11-23T16:23:46.056Z,109.50
2022-11-23T16:26:16.440Z,106.60
2022-11-23T16:29:03.642Z,100.50
2022-11-23T16:31:39.350Z,105.70
2022-11-23T16:34:17.635Z,110.50
2022-11-23T16:36:46.188Z,110.80
2022-11-23T16:39:14.741Z,108.90
2022-11-23T16:41:43.248Z,106.70
2022-11-23T16:44:12.284Z,104.40
2022-11-23T16:46:43.799Z,104.40
2022-11-23T16:49:19.057Z,105.80
2022-11-23T16:51:57.025Z,107.60
2022-11-23T16:54:26.470Z,110.00
2022-11-23T16:56:57.140Z,117.60
2022-11-23T16:59:26.287Z,115.30
2022-11-23T17:01:57.852Z,118.20
2022-11-23T17:04:27.979Z,114.70
2022-11-23T17:07:00.613Z,123.60
2022-11-23T17:09:30.571Z,123.10
2022-11-23T17:11:59.253Z,131.60
2022-11-23T17:14:30.082Z,127.70
2022-11-23T17:17:02.359Z,128.30
2022-11-23T17:19:31.889Z,132.30
2022-11-23T17:22:01.676Z,143.70
2022-11-23T17:24:32.812Z,134.10
2022-11-23T17:27:01.746Z,140.30
2022-11-23T17:29:33.221Z,140.10
2022-11-23T17:32:04.675Z,134.20
2022-11-23T17:34:33.160Z,134.10
2022-11-23T17:37:03.149Z,135.10
2022-11-23T17:39:36.927Z,117.50
2022-11-23T17:42:11.817Z,128.80
2022-11-23T17:44:44.810Z,122.10
2022-11-23T17:47:32.628Z,109.30
2022-11-23T17:50:03.736Z,111.00
2022-11-23T17:52:35.959Z,117.30
2022-11-23T17:55:04.901Z,119.90
2022-11-23T17:57:34.242Z,120.60
2022-11-23T18:00:03.755Z,111.90
2022-11-23T18:02:42.051Z,115.10
2022-11-23T18:05:19.500Z,121.10
2022-11-23T18:07:51.782Z,124.60
2022-11-23T18:10:20.929Z,124.60
2022-11-23T18:12:49.599Z,136.00
2022-11-23T18:15:23.078Z,141.80
2022-11-23T18:17:54.282Z,133.10
2022-11-23T18:20:24.630Z,139.30
2022-11-23T18:22:53.306Z,133.60
2022-11-23T18:25:43.741Z,137.40
2022-11-23T18:28:19.338Z,142.60
2022-11-23T18:30:50.289Z,147.80
2022-11-23T18:33:18.779Z,130.40
2022-11-23T18:35:47.447Z,126.90
2022-11-23T18:38:16.292Z,127.10
2022-11-23T18:40:44.506Z,133.10
2022-11-23T18:43:13.507Z,144.50
2022-11-23T18:45:42.909Z,142.70
2022-11-23T18:48:11.420Z,146.60
2022-11-23T18:50:40.455Z,148.60
2022-11-23T18:53:09.212Z,142.40
2022-11-23T18:55:37.962Z,155.90
2022-11-23T18:58:07.802Z,150.30
2022-11-23T19:00:37.666Z,153.30
2022-11-23T19:03:10.122Z,148.00
2022-11-23T19:05:43.032Z,153.70
2022-11-23T19:08:14.514Z,164.00
2022-11-23T19:10:45.751Z,147.60
2022-11-23T19:13:14.547Z,139.70
2022-11-23T19:15:44.106Z,139.10
2022-11-23T19:18:14.078Z,142.90
2022-11-23T19:20:43.083Z,142.40
2022-11-23T19:23:14.328Z,142.90
2022-11-23T19:25:43.304Z,151.10
2022-11-23T19:28:12.278Z,169.10
2022-11-23T19:30:41.500Z,171.00
2022-11-23T19:33:10.531Z,164.70
2022-11-23T19:35:39.421Z,178.30
2022-11-23T19:38:11.666Z,189.20
2022-11-23T19:40:41.148Z,185.00
2022-11-23T19:43:09.784Z,179.50
2022-11-23T19:45:38.626Z,177.50
2022-11-23T19:48:10.182Z,147.80
2022-11-23T19:50:39.946Z,148.80
2022-11-23T19:53:30.729Z,155.70
2022-11-23T19:56:07.740Z,152.90
2022-11-23T19:58:36.782Z,156.40
2022-11-23T20:01:08.161Z,151.30
2022-11-23T20:03:39.635Z,155.20
2022-11-23T20:06:12.745Z,136.80
2022-11-23T20:08:43.109Z,145.40
2022-11-23T20:11:17.149Z,126.60
2022-11-23T20:13:45.878Z,125.90
2022-11-23T20:16:18.494Z,125.80
2022-11-23T20:18:54.482Z,114.10
2022-11-23T20:21:24.013Z,113.80
2022-11-23T20:24:02.796Z,116.10
2022-11-23T20:26:34.058Z,160.70
2022-11-23T20:29:05.284Z,218.50
2022-11-23T20:31:40.169Z,148.50
2022-11-23T20:34:19.525Z,128.10
2022-11-23T20:36:51.784Z,123.10
2022-11-23T20:39:20.628Z,124.40
2022-11-23T20:41:49.979Z,116.20
2022-11-23T20:44:19.457Z,129.50
2022-11-23T20:47:05.776Z,127.00
2022-11-23T20:49:37.299Z,118.40
2022-11-23T20:52:06.429Z,108.60
2022-11-23T20:54:36.386Z,107.00
2022-11-23T20:57:06.058Z,107.90
2022-11-23T20:59:34.929Z,92.30
2022-11-23T21:02:03.133Z,101.40
2022-11-23T21:04:32.620Z,105.20
2022-11-23T21:07:01.275Z,105.50
2022-11-23T21:09:30.459Z,101.70
2022-11-23T21:12:17.973Z,115.20
2022-11-23T21:14:46.003Z,104.80
2022-11-23T21:17:14.907Z,104.60
2022-11-23T21:19:43.676Z,99.10
2022-11-23T21:22:14.171Z,95.30
2022-11-23T21:24:42.795Z,94.60
2022-11-23T21:27:13.688Z,95.70
2022-11-23T21:29:44.584Z,90.60
2022-11-23T21:32:16.794Z,88.90
2022-11-23T21:34:45.812Z,102.70
2022-11-23T21:37:14.338Z,101.90
2022-11-23T21:39:44.623Z,93.40
2022-11-23T21:42:17.126Z,99.00
2022-11-23T21:44:45.397Z,104.50
2022-11-23T21:47:14.677Z,102.50
2022-11-23T21:49:46.717Z,102.50
2022-11-23T21:52:16.001Z,96.20
2022-11-23T21:54:48.969Z,98.60
2022-11-23T21:57:17.818Z,100.70
2022-11-23T21:59:46.084Z,97.70
2022-11-23T22:02:14.669Z,99.70
2022-11-23T22:04:43.114Z,100.50
2022-11-23T22:07:12.261Z,103.10
2022-11-23T22:09:40.314Z,104.30
2022-11-23T22:12:08.654Z,92.50
2022-11-23T22:14:37.175Z,95.20
2022-11-23T22:17:05.617Z,95.90
2022-11-23T22:19:34.001Z,102.80
2022-11-23T22:22:02.093Z,98.30
2022-11-23T22:24:30.315Z,100.30
2022-11-23T22:26:59.539Z,101.00
2022-11-23T22:29:28.399Z,102.80
2022-11-23T22:31:57.758Z,102.50
2022-11-23T22:34:30.149Z,100.60
2022-11-23T22:36:58.832Z,104.70
2022-11-23T22:39:27.880Z,92.50
2022-11-23T22:41:57.016Z,104.10
2022-11-23T22:44:25.740Z,104.20
2022-11-23T22:46:54.233Z,99.80
2022-11-23T22:49:22.351Z,97.90
2022-11-23T22:51:50.618Z,104.10
2022-11-23T22:54:18.720Z,102.50
2022-11-23T22:56:46.823Z,99.40
2022-11-23T22:59:15.252Z,105.30
2022-11-23T23:01:43.513Z,105.80
2022-11-23T23:04:11.579Z,106.90
2022-11-23T23:06:39.880Z,107.20
2022-11-23T23:09:08.114Z,101.60
2022-11-23T23:11:37.560Z,107.10
2022-11-23T23:14:06.189Z,115.60
2022-11-23T23:16:35.183Z,101.80
2022-11-23T23:19:06.548Z,103.80
2022-11-23T23:21:35.128Z,106.20
2022-11-23T23:24:03.228Z,109.70
2022-11-23T23:26:31.417Z,110.10
2022-11-23T23:29:00.805Z,109.50
2022-11-23T23:31:30.572Z,106.20
2022-11-23T23:33:59.945Z,101.70
2022-11-23T23:36:28.172Z,108.20
2022-11-23T23:38:57.984Z,113.90
2022-11-23T23:41:29.137Z,103.90
2022-11-23T23:43:59.778Z,104.50
2022-11-23T23:46:28.067Z,111.00
2022-11-23T23:48:56.196Z,105.90
2022-11-23T23:51:25.154Z,104.70
2022-11-23T23:53:53.496Z,102.20
2022-11-23T23:56:25.102Z,102.50
2022-11-23T23:58:56.952Z,104.00
